Time;durP1;ratioP1;P1;durP2;ratioP2;P2;SDS_P1;SDS_P2;PMS_P1;PMS_P2;Temp;Humidity;BMP_temperature;BMP_pressure;BME280_temperature;BME280_humidity;BME280_pressure;Samples;Min_cycle;Max_cycle;Signal;HPM_P1;HPM_P2
2023/12/25 00:00:44;;;;;;;8.40;1.40;;;;;;;12.15;79.19;99930.94;7396926;19;20014;-66
2023/12/25 00:03:12;;;;;;;9.15;1.60;;;;;;;12.18;79.59;99920.06;7397267;19;20373;-65
2023/12/25 00:05:40;;;;;;;11.05;1.73;;;;;;;12.15;80.03;99922.16;7397143;19;20023;-65
2023/12/25 00:08:08;;;;;;;6.85;1.50;;;;;;;12.12;80.27;99914.47;7396548;19;20015;-66
2023/12/25 00:10:36;;;;;;;10.30;1.67;;;;;;;12.10;80.27;99914.63;7396578;19;20024;-66
2023/12/25 00:13:04;;;;;;;6.82;1.23;;;;;;;12.12;80.11;99923.28;7397319;19;20103;-66
2023/12/25 00:15:32;;;;;;;5.80;1.25;;;;;;;12.16;80.00;99922.00;7396224;19;20047;-66
2023/12/25 00:18:00;;;;;;;7.60;1.40;;;;;;;12.18;80.24;99921.88;7395220;19;20490;-65
2023/12/25 00:20:28;;;;;;;9.10;1.75;;;;;;;12.14;80.50;99912.53;7394151;19;20035;-66
2023/12/25 00:22:56;;;;;;;8.13;1.40;;;;;;;12.13;80.43;99908.19;7396210;19;20026;-66
2023/12/25 00:25:24;;;;;;;9.48;1.63;;;;;;;12.10;80.86;99911.16;7396413;19;20036;-66
2023/12/25 00:27:53;;;;;;;6.55;1.70;;;;;;;12.08;80.43;99905.13;7396142;19;20032;-66
2023/12/25 00:30:21;;;;;;;8.52;1.85;;;;;;;12.11;80.68;99923.44;7393194;19;20035;-66
2023/12/25 00:32:49;;;;;;;8.10;1.50;;;;;;;12.15;80.12;99920.34;7396176;19;20030;-66
2023/12/25 00:35:17;;;;;;;7.50;1.60;;;;;;;12.11;80.47;99923.44;7395697;19;20035;-64
2023/12/25 00:37:45;;;;;;;9.63;1.90;;;;;;;12.14;80.27;99916.03;7395696;19;20705;-66
2023/12/25 00:40:13;;;;;;;10.82;1.50;;;;;;;12.11;80.51;99920.78;7392990;19;20474;-66
2023/12/25 00:42:40;;;;;;;8.60;1.88;;;;;;;12.14;80.37;99921.31;7395323;19;20327;-65
2023/12/25 00:45:09;;;;;;;10.70;1.80;;;;;;;12.14;80.16;99920.50;7390983;19;20018;-65
2023/12/25 00:47:36;;;;;;;7.60;1.65;;;;;;;12.17;80.27;99923.69;7395820;19;20494;-65
2023/12/25 00:50:05;;;;;;;8.80;1.60;;;;;;;12.16;80.17;99916.69;7392097;19;20014;-65
2023/12/25 00:52:33;;;;;;;9.30;1.60;;;;;;;12.19;80.23;99912.94;7395293;19;20031;-65
2023/12/25 00:55:01;;;;;;;4.72;1.50;;;;;;;12.22;80.60;99915.28;7395074;19;20082;-66
2023/12/25 00:57:30;;;;;;;7.10;1.45;;;;;;;12.20;80.20;99928.69;7394903;19;20015;-65
2023/12/25 00:59:58;;;;;;;6.35;1.40;;;;;;;12.27;80.21;99931.63;7392865;19;20136;-65
2023/12/25 01:02:26;;;;;;;7.93;1.30;;;;;;;12.29;79.78;99934.16;7394990;19;20019;-66
2023/12/25 01:04:53;;;;;;;10.13;1.48;;;;;;;12.30;79.52;99925.19;7393450;19;20018;-65
2023/12/25 01:07:22;;;;;;;8.48;1.60;;;;;;;12.28;79.83;99940.41;7394764;19;20014;-65
2023/12/25 01:09:49;;;;;;;6.82;1.58;;;;;;;12.29;80.10;99931.50;7392359;19;20074;-65
2023/12/25 01:12:17;;;;;;;5.60;1.60;;;;;;;12.27;80.24;99944.88;7393342;19;20309;-66
2023/12/25 01:14:46;;;;;;;8.27;1.58;;;;;;;12.25;80.40;99938.91;7394540;19;20027;-65
2023/12/25 01:17:14;;;;;;;9.90;1.42;;;;;;;12.25;79.68;99944.22;7394310;19;20455;-65
2023/12/25 01:19:42;;;;;;;8.85;1.48;;;;;;;12.28;79.65;99937.75;7392310;19;20542;-66
2023/12/25 01:22:10;;;;;;;7.60;1.40;;;;;;;12.24;79.55;99931.91;7394596;19;20017;-65
2023/12/25 01:24:37;;;;;;;5.47;1.25;;;;;;;12.21;79.64;99950.78;7392778;19;20014;-65
2023/12/25 01:27:06;;;;;;;7.20;1.70;;;;;;;12.23;79.56;99934.72;7394230;19;20018;-65
2023/12/25 01:29:33;;;;;;;7.57;1.40;;;;;;;12.17;79.33;99936.97;7391844;19;20022;-66
2023/12/25 01:32:02;;;;;;;6.78;1.27;;;;;;;12.25;78.93;99941.56;7393600;19;20018;-65
2023/12/25 01:34:30;;;;;;;7.70;1.48;;;;;;;12.26;78.94;99942.41;7393259;19;20018;-65
2023/12/25 01:36:58;;;;;;;6.63;1.30;;;;;;;12.25;78.53;99946.88;7393659;19;20101;-65
2023/12/25 01:39:26;;;;;;;5.47;1.60;;;;;;;12.26;77.73;99953.00;7391776;19;20551;-66
2023/12/25 01:41:53;;;;;;;7.90;1.25;;;;;;;12.19;77.98;99940.31;7393463;19;20054;-65
2023/12/25 01:44:21;;;;;;;5.40;1.35;;;;;;;12.22;77.27;99949.81;7392262;19;20082;-66
2023/12/25 01:46:54;;;;;;;7.20;1.30;;;;;;;12.25;77.26;99944.22;7393246;19;20014;-65
2023/12/25 01:49:23;;;;;;;8.43;1.50;;;;;;;12.19;76.94;99947.44;7391976;19;20058;-66
2023/12/25 01:51:51;;;;;;;8.63;1.60;;;;;;;12.19;77.25;99958.03;7393640;19;20117;-65
2023/12/25 01:54:19;;;;;;;8.98;1.50;;;;;;;12.20;77.23;99962.38;7393034;19;20014;-65
2023/12/25 01:56:48;;;;;;;8.48;1.70;;;;;;;12.15;77.42;99968.13;7392836;19;20014;-66
2023/12/25 01:59:16;;;;;;;7.80;1.25;;;;;;;12.20;77.20;99981.78;7391881;19;20018;-66
2023/12/25 02:01:43;;;;;;;6.93;1.50;;;;;;;12.22;77.44;99967.56;7393041;19;20019;-65
2023/12/25 02:04:11;;;;;;;7.60;1.35;;;;;;;12.27;77.45;99974.09;7392296;19;20019;-65
2023/12/25 02:06:39;;;;;;;5.78;1.35;;;;;;;12.26;77.33;99968.94;7393345;19;20036;-65
2023/12/25 02:09:07;;;;;;;8.70;1.67;;;;;;;12.25;77.68;99996.44;7390854;19;20019;-65
2023/12/25 02:11:40;;;;;;;9.07;1.50;;;;;;;12.26;77.37;99987.53;7390973;19;20014;-65
2023/12/25 02:14:10;;;;;;;7.18;1.50;;;;;;;12.23;77.37;100011.69;7391303;19;20046;-65
2023/12/25 02:16:39;;;;;;;7.85;1.48;;;;;;;12.31;77.38;100004.69;7392704;19;20014;-66
2023/12/25 02:19:20;;;;;;;9.23;1.67;;;;;;;12.32;76.50;99993.06;7391267;19;20042;-65
2023/12/25 02:21:50;;;;;;;8.73;1.60;;;;;;;12.30;76.87;99996.88;7391951;19;20030;-64
2023/12/25 02:24:24;;;;;;;6.40;1.52;;;;;;;12.38;76.07;99991.69;7391592;19;20016;-64
2023/12/25 02:26:52;;;;;;;8.30;1.70;;;;;;;12.33;76.13;99996.59;7392137;19;20130;-65
2023/12/25 02:29:20;;;;;;;8.20;1.30;;;;;;;12.33;75.22;100002.75;7390136;19;20381;-65
2023/12/25 02:31:49;;;;;;;11.00;1.63;;;;;;;12.29;75.26;100009.31;7392052;19;20335;-65
2023/12/25 02:34:17;;;;;;;6.35;1.40;;;;;;;12.29;75.24;100019.94;7392025;19;20035;-66
2023/12/25 02:36:45;;;;;;;11.82;2.08;;;;;;;12.31;75.15;100007.34;7391767;19;20011;-65
2023/12/25 02:39:13;;;;;;;8.40;1.25;;;;;;;12.26;74.36;100014.91;7390652;19;20150;-66
2023/12/25 02:41:41;;;;;;;10.15;1.83;;;;;;;12.28;74.24;100009.44;7390950;19;20716;-65
2023/12/25 02:44:09;;;;;;;11.38;2.75;;;;;;;12.29;73.56;100035.88;7391031;19;20328;-64
2023/12/25 02:46:40;;;;;;;11.82;2.38;;;;;;;12.30;73.82;100024.25;7391305;19;20026;-65
2023/12/25 02:49:08;;;;;;;11.02;2.63;;;;;;;12.34;73.18;100019.50;7389718;19;20021;-64
2023/12/25 02:51:36;;;;;;;12.73;2.78;;;;;;;12.31;73.24;100014.47;7391854;19;20019;-65
2023/12/25 02:54:04;;;;;;;9.25;2.10;;;;;;;12.30;73.44;100002.19;7391633;19;20031;-65
2023/12/25 02:56:32;;;;;;;7.10;1.42;;;;;;;12.28;73.34;100012.09;7391586;19;20393;-65
2023/12/25 02:59:00;;;;;;;8.02;2.00;;;;;;;12.25;73.22;100013.22;7389423;19;20015;-65
2023/12/25 03:01:28;;;;;;;13.38;2.45;;;;;;;12.20;72.43;100000.38;7390046;19;20138;-65
2023/12/25 03:03:56;;;;;;;12.13;2.13;;;;;;;12.23;72.79;100019.66;7389151;19;20014;-65
2023/12/25 03:06:24;;;;;;;8.57;1.48;;;;;;;12.22;71.94;100016.16;7389391;19;20025;-65
2023/12/25 03:08:52;;;;;;;8.38;1.48;;;;;;;12.22;72.05;100034.75;7389717;19;20022;-65
2023/12/25 03:11:20;;;;;;;10.63;1.70;;;;;;;12.21;71.90;100033.09;7391076;19;20015;-65
2023/12/25 03:13:48;;;;;;;5.68;1.00;;;;;;;12.19;71.42;100006.66;7390473;19;20015;-65
2023/12/25 03:16:18;;;;;;;11.13;2.33;;;;;;;12.18;70.07;100046.63;7390691;19;20019;-65
2023/12/25 03:18:46;;;;;;;9.63;1.83;;;;;;;12.16;69.28;100053.88;7389406;19;20038;-65
2023/12/25 03:21:15;;;;;;;7.57;2.10;;;;;;;12.12;69.15;100050.66;7390746;19;20018;-65
2023/12/25 03:23:42;;;;;;;10.05;2.63;;;;;;;12.14;69.16;100042.59;7392021;19;20018;-66
2023/12/25 03:26:10;;;;;;;14.27;3.25;;;;;;;12.16;68.88;100054.72;7395240;19;20383;-65
2023/12/25 03:28:38;;;;;;;10.73;2.28;;;;;;;12.17;69.00;100053.75;7396410;19;20347;-66
2023/12/25 03:31:07;;;;;;;10.07;1.95;;;;;;;12.17;69.17;100055.56;7397594;19;20078;-66
2023/12/25 03:33:35;;;;;;;13.60;2.95;;;;;;;12.15;68.77;100054.88;7396435;19;20018;-66
2023/12/25 03:36:05;;;;;;;10.88;2.80;;;;;;;12.11;68.74;100069.41;7398031;19;20435;-66
2023/12/25 03:38:33;;;;;;;12.90;2.40;;;;;;;12.08;68.34;100065.19;7396288;19;20041;-66
2023/12/25 03:41:01;;;;;;;9.13;2.58;;;;;;;12.04;68.69;100076.25;7397060;19;20078;-65
2023/12/25 03:43:29;;;;;;;12.95;2.70;;;;;;;12.03;68.32;100070.09;7396963;19;20357;-66
2023/12/25 03:45:57;;;;;;;8.23;1.70;;;;;;;11.98;68.36;100063.50;7395322;19;20094;-66
2023/12/25 03:48:25;;;;;;;11.05;3.65;;;;;;;12.04;68.05;100078.91;7396529;19;20015;-66
2023/12/25 03:50:53;;;;;;;15.98;3.15;;;;;;;12.01;68.24;100087.13;7397417;19;20014;-66
2023/12/25 03:53:21;;;;;;;17.13;4.03;;;;;;;11.98;68.29;100082.09;7396779;19;20025;-66
2023/12/25 03:55:49;;;;;;;13.45;2.45;;;;;;;11.95;68.44;100092.03;7397336;19;20360;-66
2023/12/25 03:58:16;;;;;;;11.13;2.40;;;;;;;11.92;68.48;100089.63;7396118;19;20022;-65
2023/12/25 04:00:44;;;;;;;6.78;1.42;;;;;;;11.98;68.91;100082.09;7396873;19;20035;-65
2023/12/25 04:03:12;;;;;;;9.63;1.73;;;;;;;11.92;69.00;100083.50;7397205;19;20027;-66
2023/12/25 04:05:40;;;;;;;14.25;2.90;;;;;;;12.00;68.85;100096.06;7394864;19;20042;-65
2023/12/25 04:08:08;;;;;;;13.73;3.47;;;;;;;12.01;68.79;100081.81;7394743;19;20042;-65
2023/12/25 04:10:35;;;;;;;13.68;3.22;;;;;;;11.98;69.23;100077.66;7396556;19;20010;-64
2023/12/25 04:13:04;;;;;;;14.02;2.95;;;;;;;11.91;69.49;100090.63;7396314;19;20042;-65
2023/12/25 04:15:32;;;;;;;12.23;3.30;;;;;;;11.91;68.84;100121.63;7396336;19;20027;-65
2023/12/25 04:18:00;;;;;;;11.80;2.63;;;;;;;11.85;68.93;100125.66;7395657;19;20052;-64
2023/12/25 04:20:28;;;;;;;10.50;2.20;;;;;;;11.86;68.54;100084.03;7392724;19;20039;-64
2023/12/25 04:22:56;;;;;;;10.27;2.08;;;;;;;11.87;68.78;100117.56;7396324;19;20478;-64
2023/12/25 04:25:24;;;;;;;12.50;2.63;;;;;;;11.83;69.35;100098.44;7393860;19;20019;-65
2023/12/25 04:27:52;;;;;;;11.43;2.33;;;;;;;11.82;69.70;100095.88;7396190;19;20015;-65
2023/12/25 04:30:20;;;;;;;12.55;2.95;;;;;;;11.86;69.91;100114.06;7393082;19;20333;-65
2023/12/25 04:32:48;;;;;;;9.68;2.60;;;;;;;11.80;69.72;100127.00;7395599;19;20019;-65
2023/12/25 04:35:16;;;;;;;12.77;3.03;;;;;;;11.83;69.81;100124.97;7394332;19;20010;-65
2023/12/25 04:37:44;;;;;;;11.85;3.10;;;;;;;11.77;70.01;100116.66;7395667;19;20022;-64
2023/12/25 04:40:12;;;;;;;11.10;2.35;;;;;;;11.71;70.21;100126.00;7393081;19;20341;-64
2023/12/25 04:42:40;;;;;;;13.35;3.22;;;;;;;11.63;71.10;100125.84;7395193;19;20043;-64
2023/12/25 04:45:08;;;;;;;9.25;2.75;;;;;;;11.61;72.39;100131.28;7395019;19;20022;-64
2023/12/25 04:47:36;;;;;;;8.40;1.30;;;;;;;11.45;72.64;100141.56;7395071;19;20024;-65
2023/12/25 04:50:05;;;;;;;7.65;1.55;;;;;;;11.31;73.29;100145.41;7393061;19;20029;-65
2023/12/25 04:52:32;;;;;;;8.43;1.60;;;;;;;11.21;74.59;100155.97;7394110;19;20043;-64
2023/12/25 04:55:00;;;;;;;12.93;2.80;;;;;;;11.12;75.90;100162.06;7393710;19;20030;-64
2023/12/25 04:57:29;;;;;;;13.57;2.50;;;;;;;11.01;77.35;100148.03;7394760;19;20014;-64
2023/12/25 04:59:57;;;;;;;13.45;4.10;;;;;;;10.95;77.51;100155.56;7391076;19;20038;-64
2023/12/25 05:02:25;;;;;;;12.80;3.45;;;;;;;10.95;77.65;100152.91;7394072;19;20089;-64
2023/12/25 05:04:53;;;;;;;12.50;3.35;;;;;;;10.91;78.00;100150.63;7394668;19;20023;-64
2023/12/25 05:07:20;;;;;;;14.70;3.97;;;;;;;10.86;78.23;100148.38;7394923;19;20018;-65
2023/12/25 05:09:48;;;;;;;14.30;3.72;;;;;;;10.97;77.81;100140.34;7393036;19;20014;-65
2023/12/25 05:12:16;;;;;;;14.70;3.70;;;;;;;10.95;77.47;100138.78;7395301;19;20371;-65
2023/12/25 05:14:45;;;;;;;15.35;3.28;;;;;;;11.00;77.65;100154.31;7394635;19;20026;-65
2023/12/25 05:17:13;;;;;;;10.07;1.83;;;;;;;11.04;77.44;100171.63;7395429;19;20022;-65
2023/12/25 05:19:42;;;;;;;7.55;1.50;;;;;;;11.00;77.83;100157.81;7392660;19;20530;-65
2023/12/25 05:22:10;;;;;;;9.43;1.42;;;;;;;11.02;77.80;100179.69;7394666;19;20101;-65
2023/12/25 05:24:38;;;;;;;11.48;2.10;;;;;;;11.06;77.83;100167.03;7394474;19;20030;-65
2023/12/25 05:27:06;;;;;;;8.40;2.10;;;;;;;11.03;77.74;100170.81;7392321;19;20051;-65
2023/12/25 05:29:34;;;;;;;12.32;2.70;;;;;;;11.07;77.56;100174.88;7391873;19;20024;-65
2023/12/25 05:32:02;;;;;;;13.20;3.97;;;;;;;11.11;76.89;100173.63;7394606;19;20045;-65
2023/12/25 05:34:30;;;;;;;11.95;2.65;;;;;;;11.17;75.86;100166.97;7393782;19;20023;-65
2023/12/25 05:36:57;;;;;;;15.93;3.28;;;;;;;11.18;75.47;100168.63;7392330;19;20020;-65
2023/12/25 05:39:25;;;;;;;11.45;2.47;;;;;;;11.15;75.62;100163.63;7391718;19;20482;-65
2023/12/25 05:41:53;;;;;;;18.75;3.28;;;;;;;11.16;75.12;100171.41;7393680;19;20363;-65
2023/12/25 05:44:21;;;;;;;10.68;2.45;;;;;;;11.17;74.95;100181.03;7393812;19;20482;-64
2023/12/25 05:46:49;;;;;;;11.93;2.67;;;;;;;11.16;74.73;100189.13;7389884;19;20032;-64
2023/12/25 05:49:17;;;;;;;12.02;2.45;;;;;;;11.14;74.75;100175.16;7391845;19;20018;-65
2023/12/25 05:51:44;;;;;;;11.43;2.58;;;;;;;11.15;74.34;100187.47;7393360;19;20098;-65
2023/12/25 05:54:12;;;;;;;9.73;2.20;;;;;;;11.14;74.06;100201.66;7392930;19;20487;-64
2023/12/25 05:56:40;;;;;;;14.88;4.05;;;;;;;11.18;73.74;100195.13;7393364;19;20078;-64
2023/12/25 05:59:08;;;;;;;18.40;3.80;;;;;;;11.15;74.12;100190.13;7392034;19;20018;-64
2023/12/25 06:01:36;;;;;;;12.55;3.03;;;;;;;11.21;73.90;100210.78;7393061;19;20046;-64
2023/12/25 06:04:03;;;;;;;19.90;4.07;;;;;;;11.27;73.38;100225.34;7393118;19;20046;-64
2023/12/25 06:06:31;;;;;;;16.73;4.45;;;;;;;11.30;72.51;100206.53;7391940;19;20487;-65
2023/12/25 06:08:59;;;;;;;14.73;4.32;;;;;;;11.33;72.81;100209.75;7392136;19;20033;-64
2023/12/25 06:11:28;;;;;;;16.38;3.90;;;;;;;11.29;72.83;100207.47;7393010;19;20014;-64
2023/12/25 06:13:56;;;;;;;17.42;5.20;;;;;;;11.20;72.90;100199.34;7392576;19;20011;-64
2023/12/25 06:16:24;;;;;;;13.70;3.35;;;;;;;11.25;72.47;100203.41;7392782;19;20626;-65
2023/12/25 06:18:52;;;;;;;14.82;2.95;;;;;;;11.22;72.45;100207.19;7391404;19;20022;-64
2023/12/25 06:21:19;;;;;;;10.88;2.20;;;;;;;11.25;72.65;100214.00;7392423;19;20014;-65
2023/12/25 06:23:47;;;;;;;12.55;2.47;;;;;;;11.20;72.92;100211.75;7393379;19;20022;-65
2023/12/25 06:26:15;;;;;;;12.60;2.35;;;;;;;11.23;72.83;100222.09;7391502;19;20019;-65
2023/12/25 06:28:43;;;;;;;10.05;1.70;;;;;;;11.20;72.60;100220.53;7391718;19;20018;-65
2023/12/25 06:31:11;;;;;;;16.58;3.58;;;;;;;11.22;72.47;100217.78;7392274;19;20482;-65
2023/12/25 06:33:38;;;;;;;13.68;2.95;;;;;;;11.22;72.40;100231.03;7392705;19;20026;-66
2023/12/25 06:36:07;;;;;;;13.73;2.95;;;;;;;11.26;72.39;100228.97;7392080;19;20077;-65
2023/12/25 06:38:35;;;;;;;12.18;2.60;;;;;;;11.31;72.03;100226.75;7390943;19;20026;-65
2023/12/25 06:41:03;;;;;;;15.55;3.40;;;;;;;11.31;71.84;100240.84;7392104;19;20038;-65
2023/12/25 06:43:31;;;;;;;12.52;3.65;;;;;;;11.26;71.88;100243.06;7392047;19;20438;-64
2023/12/25 06:45:59;;;;;;;15.07;3.33;;;;;;;11.19;72.36;100237.41;7390038;19;20023;-65
2023/12/25 06:48:29;;;;;;;12.20;2.70;;;;;;;11.24;72.36;100244.97;7390296;19;20035;-65
2023/12/25 06:50:57;;;;;;;14.13;2.88;;;;;;;11.25;72.38;100229.91;7391634;19;20018;-65
2023/12/25 06:53:25;;;;;;;11.27;2.90;;;;;;;11.20;72.51;100246.22;7388695;19;20019;-65
2023/12/25 06:55:53;;;;;;;15.45;3.42;;;;;;;11.16;72.96;100250.09;7389877;19;20023;-65
2023/12/25 06:58:20;;;;;;;13.73;2.72;;;;;;;11.20;73.12;100262.09;7390356;19;20022;-64
2023/12/25 07:00:48;;;;;;;8.10;1.60;;;;;;;11.16;73.36;100261.53;7389663;19;20391;-64
2023/12/25 07:03:16;;;;;;;10.57;1.73;;;;;;;11.12;73.74;100253.97;7391508;19;20053;-65
2023/12/25 07:05:44;;;;;;;11.25;2.38;;;;;;;11.10;73.74;100279.75;7390337;19;20014;-65
2023/12/25 07:08:12;;;;;;;17.10;3.83;;;;;;;11.08;73.84;100271.94;7390464;19;20123;-65
2023/12/25 07:10:40;;;;;;;13.45;3.55;;;;;;;11.10;73.67;100285.88;7389421;19;20031;-64
2023/12/25 07:13:08;;;;;;;14.77;3.88;;;;;;;11.08;73.78;100290.47;7390427;19;20459;-65
2023/12/25 07:15:38;;;;;;;13.73;3.83;;;;;;;11.11;73.78;100284.09;7390884;19;20022;-65
2023/12/25 07:18:06;;;;;;;17.98;4.55;;;;;;;11.05;73.73;100296.03;7391564;19;20018;-65
2023/12/25 07:20:34;;;;;;;13.85;3.38;;;;;;;11.10;73.29;100280.56;7390250;19;20032;-65
2023/12/25 07:23:02;;;;;;;12.98;2.97;;;;;;;11.11;73.42;100287.59;7390846;19;20486;-65
2023/12/25 07:25:30;;;;;;;17.25;3.28;;;;;;;11.11;73.27;100287.59;7390706;19;20039;-65
2023/12/25 07:27:58;;;;;;;15.25;3.00;;;;;;;11.03;73.32;100291.81;7390724;19;20018;-65
2023/12/25 07:30:26;;;;;;;13.93;2.97;;;;;;;11.04;73.55;100290.88;7387878;19;20523;-65
2023/12/25 07:32:54;;;;;;;16.13;3.22;;;;;;;11.09;73.80;100296.63;7390312;19;20585;-65
2023/12/25 07:35:22;;;;;;;15.90;3.63;;;;;;;11.00;73.93;100294.75;7389324;19;20057;-65
2023/12/25 07:37:49;;;;;;;13.98;3.42;;;;;;;11.09;73.98;100305.41;7390094;19;20014;-65
2023/12/25 07:40:18;;;;;;;15.52;3.80;;;;;;;11.05;73.90;100311.09;7391136;19;20031;-65
2023/12/25 07:42:45;;;;;;;12.35;2.95;;;;;;;11.07;73.81;100319.78;7390396;19;20015;-65
2023/12/25 07:45:13;;;;;;;14.50;3.78;;;;;;;11.06;74.19;100320.72;7392775;19;20015;-65
2023/12/25 07:47:41;;;;;;;15.82;3.55;;;;;;;11.05;73.37;100319.03;7388159;19;20023;-65
2023/12/25 07:50:09;;;;;;;14.73;3.30;;;;;;;11.06;73.80;100312.75;7389865;19;20029;-65
2023/12/25 07:52:37;;;;;;;18.98;4.07;;;;;;;11.04;73.99;100312.91;7390086;19;20014;-65
2023/12/25 07:55:05;;;;;;;12.77;2.95;;;;;;;10.93;73.37;100326.19;7389779;19;20518;-65
2023/12/25 07:57:33;;;;;;;11.75;2.85;;;;;;;10.98;73.27;100338.09;7389978;19;20014;-65
2023/12/25 08:00:01;;;;;;;12.50;2.75;;;;;;;10.97;73.09;100331.09;7387629;19;20033;-65
2023/12/25 08:02:30;;;;;;;12.10;2.42;;;;;;;11.01;73.14;100338.81;7389876;19;20047;-65
2023/12/25 08:04:57;;;;;;;12.98;2.60;;;;;;;11.01;72.96;100344.09;7389170;19;20416;-65
2023/12/25 08:07:25;;;;;;;9.65;2.00;;;;;;;11.04;72.78;100350.00;7385997;19;20027;-65
2023/12/25 08:09:53;;;;;;;7.93;1.67;;;;;;;10.96;72.55;100369.19;7389801;19;20418;-65
2023/12/25 08:12:21;;;;;;;12.52;2.58;;;;;;;10.87;72.99;100347.88;7396596;19;20616;-65
2023/12/25 08:14:49;;;;;;;10.68;2.10;;;;;;;10.79;72.71;100368.84;7396331;19;20033;-65
2023/12/25 08:17:17;;;;;;;13.52;2.90;;;;;;;10.92;72.27;100373.03;7396547;19;20014;-65
2023/12/25 08:19:45;;;;;;;10.05;2.38;;;;;;;10.89;72.36;100368.00;7393621;19;20042;-66
2023/12/25 08:22:13;;;;;;;11.80;2.35;;;;;;;10.86;72.49;100375.34;7396110;19;20030;-65
2023/12/25 08:24:42;;;;;;;11.35;3.13;;;;;;;10.99;72.21;100368.09;7396539;19;20038;-65
2023/12/25 08:27:10;;;;;;;14.05;3.42;;;;;;;10.89;72.24;100378.59;7393895;19;20043;-66
2023/12/25 08:29:38;;;;;;;15.07;3.50;;;;;;;10.96;72.13;100381.59;7393609;19;20372;-66
2023/12/25 08:32:06;;;;;;;15.05;3.50;;;;;;;11.03;71.93;100384.56;7395840;19;20030;-66
2023/12/25 08:34:37;;;;;;;14.35;2.72;;;;;;;11.10;72.13;100375.13;7394281;19;20374;-65
2023/12/25 08:37:05;;;;;;;14.23;2.92;;;;;;;11.09;71.94;100387.56;7395889;19;20027;-65
2023/12/25 08:39:33;;;;;;;17.67;3.00;;;;;;;11.09;72.28;100384.91;7393662;19;20022;-64
2023/12/25 08:42:03;;;;;;;14.68;2.97;;;;;;;11.08;72.33;100385.88;7394067;19;20107;-64
2023/12/25 08:44:32;;;;;;;14.30;2.85;;;;;;;11.08;72.32;100379.75;7395996;19;20085;-65
2023/12/25 08:47:00;;;;;;;13.02;2.72;;;;;;;11.09;72.79;100397.31;7394227;19;20355;-64
2023/12/25 08:49:29;;;;;;;11.30;2.42;;;;;;;11.09;72.64;100389.38;7393170;19;20515;-65
2023/12/25 08:51:58;;;;;;;12.50;2.20;;;;;;;11.13;72.66;100404.88;7395407;19;20027;-65
2023/12/25 08:54:27;;;;;;;11.90;2.33;;;;;;;11.09;72.80;100399.97;7393726;19;20021;-65
2023/12/25 08:56:55;;;;;;;13.38;2.10;;;;;;;11.10;73.02;100409.59;7395412;19;20021;-65
2023/12/25 08:59:22;;;;;;;6.85;1.48;;;;;;;11.08;73.29;100406.25;7393075;19;20034;-65
2023/12/25 09:01:53;;;;;;;14.65;2.60;;;;;;;11.12;73.23;100410.31;7394992;19;20035;-65
2023/12/25 09:04:21;;;;;;;7.88;1.80;;;;;;;11.14;73.54;100405.72;7394943;19;20022;-65
2023/12/25 09:06:49;;;;;;;9.48;1.80;;;;;;;11.10;73.35;100418.38;7395049;19;20033;-65
2023/12/25 09:09:17;;;;;;;12.35;2.15;;;;;;;11.17;73.59;100418.72;7393117;19;20046;-65
2023/12/25 09:11:46;;;;;;;10.30;2.00;;;;;;;11.15;73.56;100426.81;7394651;19;20026;-65
2023/12/25 09:14:14;;;;;;;11.90;1.73;;;;;;;11.02;74.07;100412.03;7394280;19;20370;-65
2023/12/25 09:16:42;;;;;;;12.38;2.13;;;;;;;11.02;74.49;100422.63;7394401;19;20022;-65
2023/12/25 09:19:10;;;;;;;9.30;1.90;;;;;;;11.01;74.52;100427.09;7392771;19;20018;-65
2023/12/25 09:21:38;;;;;;;8.40;1.80;;;;;;;11.05;74.48;100448.88;7394338;19;20018;-65
2023/12/25 09:24:07;;;;;;;11.88;2.15;;;;;;;11.01;74.86;100452.75;7394340;19;20019;-64
2023/12/25 09:26:35;;;;;;;13.77;2.35;;;;;;;11.04;74.51;100448.03;7394257;19;20100;-64
2023/12/25 09:29:03;;;;;;;10.00;2.20;;;;;;;11.08;74.64;100446.81;7392236;19;20400;-64
2023/12/25 09:31:32;;;;;;;13.98;2.90;;;;;;;11.00;74.83;100456.38;7394358;19;20033;-66
2023/12/25 09:33:59;;;;;;;13.82;2.22;;;;;;;11.01;75.00;100458.88;7394450;19;20014;-64
2023/12/25 09:36:29;;;;;;;10.85;1.65;;;;;;;10.96;75.08;100438.06;7394251;19;20111;-65
2023/12/25 09:38:57;;;;;;;8.45;1.70;;;;;;;10.91;74.90;100453.50;7392606;19;20063;-64
2023/12/25 09:41:32;;;;;;;12.77;1.92;;;;;;;10.95;75.25;100459.34;7393200;19;20523;-64
2023/12/25 09:44:00;;;;;;;11.43;1.70;;;;;;;10.93;75.04;100458.66;7393521;19;20681;-64
2023/12/25 09:46:29;;;;;;;11.93;2.00;;;;;;;10.86;75.27;100466.25;7393048;19;20035;-64
2023/12/25 09:48:58;;;;;;;10.73;1.98;;;;;;;10.90;75.39;100472.97;7392061;19;20029;-64
2023/12/25 09:51:32;;;;;;;7.78;1.70;;;;;;;10.94;75.66;100478.88;7393375;19;20014;-65
2023/12/25 09:54:01;;;;;;;9.57;1.77;;;;;;;10.91;75.89;100482.63;7393908;19;20046;-65
2023/12/25 09:56:35;;;;;;;9.75;2.15;;;;;;;10.98;76.04;100485.63;7393373;19;20043;-64
2023/12/25 09:59:07;;;;;;;11.93;2.67;;;;;;;10.97;76.17;100481.28;7392141;19;20642;-65
2023/12/25 10:01:37;;;;;;;11.07;2.25;;;;;;;10.93;76.29;100475.38;7393066;19;20047;-65
2023/12/25 10:04:05;;;;;;;15.38;3.53;;;;;;;10.89;76.26;100479.25;7393307;19;20036;-66
2023/12/25 10:06:34;;;;;;;14.07;2.92;;;;;;;10.90;75.57;100488.03;7392988;19;20019;-65
2023/12/25 10:09:03;;;;;;;12.50;2.20;;;;;;;11.05;75.19;100486.81;7391917;19;20019;-65
2023/12/25 10:11:31;;;;;;;11.98;2.03;;;;;;;11.07;75.16;100492.84;7393171;19;20026;-65
2023/12/25 10:14:01;;;;;;;10.68;1.70;;;;;;;11.13;74.36;100491.50;7392501;19;20015;-65
2023/12/25 10:16:30;;;;;;;8.90;1.60;;;;;;;11.20;73.82;100492.69;7392387;19;20078;-64
2023/12/25 10:18:58;;;;;;;12.57;2.17;;;;;;;11.28;73.61;100492.06;7391611;19;20019;-65
2023/12/25 10:21:26;;;;;;;13.75;2.90;;;;;;;11.31;73.03;100494.47;7390512;19;20025;-63
2023/12/25 10:23:55;;;;;;;14.70;3.35;;;;;;;11.25;71.93;100487.03;7392681;19;20519;-64
2023/12/25 10:26:27;;;;;;;12.93;3.53;;;;;;;11.32;71.80;100489.03;7392544;19;20498;-65
2023/12/25 10:29:08;;;;;;;14.68;3.50;;;;;;;11.27;70.46;100487.75;7391491;19;20024;-65
2023/12/25 10:31:43;;;;;;;14.25;3.58;;;;;;;11.28;71.45;100495.56;7390863;19;20019;-63
2023/12/25 10:34:11;;;;;;;18.65;4.57;;;;;;;11.19;70.98;100501.63;7391370;19;20018;-66
2023/12/25 10:36:40;;;;;;;18.40;3.38;;;;;;;11.21;70.40;100500.50;7392045;19;20375;-65
2023/12/25 10:39:08;;;;;;;13.05;3.03;;;;;;;11.15;70.20;100502.84;7390830;19;20355;-63
2023/12/25 10:41:36;;;;;;;14.23;2.88;;;;;;;11.13;70.04;100499.44;7392170;19;20015;-63
2023/12/25 10:44:04;;;;;;;12.52;2.53;;;;;;;11.22;70.30;100510.16;7392350;19;20515;-61
2023/12/25 10:46:37;;;;;;;14.80;3.20;;;;;;;11.45;69.28;100510.13;7392151;19;20031;-64
2023/12/25 10:49:06;;;;;;;14.93;3.85;;;;;;;11.49;68.80;100511.56;7390940;19;20029;-65
2023/12/25 10:51:38;;;;;;;12.40;3.05;;;;;;;11.63;68.57;100521.03;7391820;19;20368;-64
2023/12/25 10:54:09;;;;;;;14.95;3.08;;;;;;;11.60;69.07;100524.78;7391326;19;20014;-63
2023/12/25 10:56:45;;;;;;;15.85;2.60;;;;;;;11.47;68.78;100519.63;7391363;19;20019;-65
2023/12/25 10:59:27;;;;;;;13.40;2.80;;;;;;;11.22;69.05;100490.78;7389927;19;20461;-66
2023/12/25 11:01:58;;;;;;;14.32;3.17;;;;;;;11.19;69.96;100510.41;7391262;19;20018;-66
2023/12/25 11:04:27;;;;;;;12.07;3.50;;;;;;;11.26;69.75;100504.63;7390803;19;20078;-64
2023/12/25 11:06:56;;;;;;;14.45;2.67;;;;;;;11.27;70.09;100501.00;7390671;19;20014;-66
2023/12/25 11:09:25;;;;;;;9.10;1.80;;;;;;;11.20;69.88;100496.19;7389467;19;20019;-66
2023/12/25 11:11:55;;;;;;;7.10;1.80;;;;;;;11.17;69.37;100501.72;7389505;19;20022;-66
2023/12/25 11:14:25;;;;;;;8.10;2.00;;;;;;;11.11;69.02;100498.75;7390619;19;20015;-64
2023/12/25 11:16:52;;;;;;;9.93;1.92;;;;;;;11.07;69.17;100505.25;7391027;19;20042;-66
2023/12/25 11:19:21;;;;;;;11.30;2.00;;;;;;;11.09;68.87;100506.81;7389107;19;20428;-62
2023/12/25 11:21:49;;;;;;;10.80;1.80;;;;;;;11.10;68.89;100510.28;7388864;19;20026;-64
2023/12/25 11:24:17;;;;;;;11.15;1.85;;;;;;;11.11;68.12;100512.00;7390203;19;20415;-64
2023/12/25 11:26:45;;;;;;;12.45;2.35;;;;;;;11.04;67.68;100516.94;7390374;19;20086;-64